Daily Tabular Data
[Select Refresh to Update]


5/30/20
Time         Wind Dir   Wind Spd  Wind Gust     Hum In   Humidity    Temp In       Temp  Raw Barom   Tot Rain Wind Chill Heat Ix In Heat Index  Dew Point  DailyRain   HourRain   RainRate
                            mph        mph          %          %         F         F         in         in         F         F         F         F         in         in      in/hr
12:00am            63          0          3         56         86       72.2       62.5      29.17      15.90       62.5       73.6       67.6       58.3       0.00       0.00      0.000
12:30am            48          0          3         56         85       72.4       62.1      29.16      15.90       62.1       73.8       67.0       57.5       0.00       0.00      0.000
1:00am             46          0          3         55         84       72.6       61.4      29.15      15.90       61.4       73.9       66.2       56.5       0.00       0.00      0.000
1:30am             45          1          2         55         87       72.6       60.4      29.14      15.90       60.4       73.9       65.6       56.5       0.00       0.00      0.000
2:00am            189          0          2         55         88       72.5       60.1      29.13      15.90       60.1       73.8       65.4       56.5       0.00       0.00      0.000
2:30am             65          0          4         55         87       72.4       60.3      29.13      15.90       60.3       73.7       65.5       56.4       0.00       0.00      0.000
3:00am            301          0          5         55         87       72.4       60.3      29.13      15.90       60.3       73.7       65.5       56.4       0.00       0.00      0.000
3:30am            339          0          0         55         88       72.3       60.6      29.13      15.90       60.6       73.6       65.9       57.0       0.00       0.00      0.000
4:00am            292          0          4         55         88       72.3       60.3      29.13      15.90       60.3       73.6       65.6       56.7       0.00       0.00      0.000
4:30am            322          0          4         55         87       72.1       60.3      29.12      15.90       60.3       73.4       65.5       56.4       0.00       0.00      0.000
5:00am            292          0          5         55         86       72.0       60.3      29.12      15.90       60.3       73.3       65.4       56.1       0.00       0.00      0.000
5:30am            291          0          5         55         87       72.1       60.9      29.12      15.90       60.9       73.4       66.1       57.0       0.00       0.00      0.000
6:00am            343          0          3         54         84       72.1       60.6      29.13      15.90       60.6       73.3       65.4       55.7       0.00       0.00      0.000
6:30am            280          0          3         54         85       71.9       61.1      29.14      15.90       61.1       73.1       66.0       56.6       0.00       0.00      0.000
7:00am            350          0          2         54         81       71.8       61.6      29.14      15.90       61.6       73.0       66.0       55.7       0.00       0.00      0.000
7:30am             38          0          3         53         79       71.7       62.6      29.14      15.90       62.6       72.8       66.7       56.0       0.00       0.00      0.000
8:00am            117          0          3         53         80       71.8       62.9      29.15      15.90       62.9       72.9       67.1       56.6       0.00       0.00      0.000
8:30am            336          0          4         53         77       71.9       64.0      29.15      15.90       64.0       73.0       67.8       56.7       0.00       0.00      0.000
9:00am            330          0          2         53         73       72.1       66.6      29.15      15.90       66.6       73.2       69.9       57.7       0.00       0.00      0.000
9:30am            268          0          3         53         71       72.3       66.8      29.15      15.90       66.8       73.4       69.9       57.1       0.00       0.00      0.000
10:00am           316          1          4         52         66       72.5       68.7      29.15      15.90       68.7       73.5       71.2       56.9       0.00       0.00      0.000
10:30am           284          1          6         52         67       72.5       68.9      29.15      15.90       68.9       73.5       71.5       57.5       0.00       0.00      0.000
11:00am           310          0          4         52         64       72.8       70.1      29.14      15.90       70.1       73.8       72.4       57.4       0.00       0.00      0.000
11:30am           284          4         10         51         62       73.1       70.5      29.14      15.90       70.5       74.0       72.5       56.9       0.00       0.00      0.000
12:00pm           242          1         14         50         59       73.6       72.8      29.13      15.90       72.8       74.4       74.5       57.7       0.00       0.00      0.000
12:30pm           303          0         11         50         56       74.1       73.9      29.12      15.90       73.9       74.9       75.3       57.2       0.00       0.00      0.000
1:00pm            273          6         10         50         55       74.3       74.9      29.12      15.90       74.9       75.1       76.2       57.7       0.00       0.00      0.000
1:30pm            256          7         13         50         55       74.7       74.7      29.11      15.90       74.7       75.5       76.0       57.5       0.00       0.00      0.000
2:00pm            260          6         13         50         53       74.9       76.4      29.11      15.90       76.4       75.7       77.5       58.0       0.00       0.00      0.000
2:30pm            261          5         12         49         53       75.2       75.5      29.10      15.90       75.5       75.9       76.6       57.2       0.00       0.00      0.000
3:00pm            244          9         13         49         52       75.6       76.3      29.10      15.90       76.3       76.3       77.3       57.4       0.00       0.00      0.000
3:30pm            267         14         14         49         51       75.9       76.6      29.10      15.90       76.6       76.6       77.5       57.1       0.00       0.00      0.000
4:00pm            265          2         14         47         52       76.3       76.0      29.10      15.90       76.0       76.8       77.0       57.1       0.00       0.00      0.000
4:30pm            277          4         14         45         53       76.7       74.9      29.09      15.90       74.9       77.0       76.0       56.6       0.00       0.00      0.000
5:00pm            312          2         15         45         56       76.7       74.2      29.09      15.90       74.2       77.0       75.6       57.5       0.00       0.00      0.000
5:30pm            249          3         13         45         55       76.9       73.8      29.08      15.90       73.8       77.2       75.1       56.6       0.00       0.00      0.000
6:00pm            290         12         15         46         60       76.7       71.1      29.08      15.90       71.1       77.1       72.9       56.5       0.00       0.00      0.000
6:30pm            277          9         16         46         66       76.0       67.5      29.08      15.90       67.5       76.4       70.0       55.8       0.00       0.00      0.000
7:00pm            286          2         12         47         68       75.2       67.2      29.09      15.90       67.2       75.7       69.9       56.3       0.00       0.00      0.000
7:30pm            274          4         13         48         69       74.7       67.1      29.09      15.90       67.1       75.3       69.9       56.6       0.00       0.00      0.000
8:00pm            304          4         11         48         73       75.7       64.9      29.09      15.90       64.9       76.3       68.2       56.0       0.00       0.00      0.000
8:30pm            278          2         10         49         78       75.7       63.4      29.09      15.90       63.4       76.4       67.4       56.4       0.00       0.00      0.000
9:00pm            269          4          5         50         82       75.2       62.6      29.10      15.90       62.6       76.0       67.1       57.0       0.00       0.00      0.000
9:30pm            276          2          6         51         84       74.8       62.1      29.10      15.90       62.1       75.7       66.9       57.2       0.00       0.00      0.000
10:00pm           271          4          5         52         85       74.3       62.0      29.10      15.90       62.0       75.3       66.9       57.4       0.00       0.00      0.000
10:30pm           280          1          6         53         88       73.7       61.3      29.10      15.90       61.3       74.8       66.6       57.7       0.00       0.00      0.000
11:00pm           294          0          3         55         90       73.2       61.0      29.10      15.90       61.0       74.5       66.6       58.1       0.00       0.00      0.000
11:30pm           294          0          3         55         91       72.6       60.6      29.10      15.90       60.6       73.9       66.4       58.0       0.00       0.00      0.000